Main page
METAR-TAF:

METAR-TAF

Airports :

Vilnius Airport

Vilnius, Lithuania

latitude: 54-38N, longitude: 025-06E, elevation: 162 m

Current weather observation

The report was made 17 minutes ago, at 10:20 UTC
Wind 5 kt from the West/Northwest
Temperature 4°C
Humidity 75%
Pressure 1017 hPa
Visibility 10 km or more
Broken clouds at a height of 2800 ft

METAR: EYVI 201020Z 30005KT 9999 BKN028 04/M00 Q1017 R19/1///95 NOSIG

Time: 12:37 (10:37 UTC)

Forecast

The report was made 2 hours and 32 minutes ago, at 08:05 UTC
Forecast valid from 20 at 08 UTC to 21 at 06 UTC
Wind 5 kt from variable directions
Visibility: 7000 m
Scattered clouds at a height of 500 ft
Broken clouds at a height of 1500 ft
Temporary
from 20 at 08 UTC to 20 at 12 UTC
Broken clouds at a height of 500 ft
Becoming
from 21 at 00 UTC to 21 at 02 UTC
Wind 15 kt from the South

TAF: EYVI 200805Z 2008/2106 VRB05KT 7000 SCT005 BKN015 TEMPO 2008/2012 BKN005 BECMG 2100/2102 18015KT

Weather observations and forecasts of more than 4000 airports (METAR and TAF reports).

The available stations are represented by yellow and red dots on the map.

Hover mouse over dot to see the name of the station.

Then click to see weather observations and forecasts.

To change the map : click on the green buttons with a black cross to zoom in, on the green button with a dash to zoom out, or on the green arrows for adjacent maps.


METAR-TAF: